createdAt,value
2022-09-01T00:00:03.915Z,48.2680
2022-09-01T00:00:15.240Z,48.1070
2022-09-01T00:00:26.782Z,48.0020
2022-09-01T00:00:37.976Z,47.9120
2022-09-01T00:00:49.178Z,47.8860
2022-09-01T00:01:00.304Z,47.8640
2022-09-01T00:01:11.440Z,47.8240
2022-09-01T00:01:22.572Z,47.7940
2022-09-01T00:01:33.919Z,47.7940
2022-09-01T00:01:45.047Z,47.8460
2022-09-01T00:01:56.176Z,47.8300
2022-09-01T00:02:07.626Z,47.8400
2022-09-01T00:02:18.813Z,47.8760
2022-09-01T00:02:30.111Z,47.8760
2022-09-01T00:02:41.324Z,47.8780
2022-09-01T00:02:52.461Z,47.9040
2022-09-01T00:03:03.613Z,47.8780
2022-09-01T00:03:14.773Z,47.9100
2022-09-01T00:03:25.899Z,47.9400
2022-09-01T00:03:37.995Z,47.9840
2022-09-01T00:03:49.125Z,47.9280
2022-09-01T00:04:00.366Z,47.9040
2022-09-01T00:04:11.726Z,47.8920
2022-09-01T00:04:22.887Z,47.8860
2022-09-01T00:04:34.067Z,47.8920
2022-09-01T00:04:45.266Z,47.9160
2022-09-01T00:04:56.367Z,47.9160
2022-09-01T00:05:07.592Z,47.9100
2022-09-01T00:05:18.730Z,47.9180
2022-09-01T00:05:29.862Z,47.9040
2022-09-01T00:05:41.010Z,47.9220
2022-09-01T00:05:52.137Z,47.9100
2022-09-01T00:06:04.377Z,47.9840
2022-09-01T00:06:15.498Z,47.9640
2022-09-01T00:06:26.794Z,47.9620
2022-09-01T00:06:37.977Z,47.9860
2022-09-01T00:06:49.187Z,47.9740
2022-09-01T00:07:00.375Z,47.9860
2022-09-01T00:07:11.599Z,47.9740
2022-09-01T00:07:22.777Z,47.9860
2022-09-01T00:07:33.980Z,47.9680
2022-09-01T00:07:45.173Z,47.9980
2022-09-01T00:07:56.302Z,47.9920
2022-09-01T00:08:07.435Z,48.0080
2022-09-01T00:08:18.873Z,48.0080
2022-09-01T00:08:30.470Z,48.0320
2022-09-01T00:08:41.583Z,48.0260
2022-09-01T00:08:52.714Z,48.0200
2022-09-01T00:09:03.899Z,48.0200
2022-09-01T00:09:15.083Z,48.0260
2022-09-01T00:09:26.201Z,48.0380
2022-09-01T00:09:37.323Z,48.0380
2022-09-01T00:09:48.456Z,48.0640
2022-09-01T00:09:59.591Z,48.0640
2022-09-01T00:10:10.776Z,48.0380
2022-09-01T00:10:21.977Z,48.0260
2022-09-01T00:10:33.339Z,48.0260
2022-09-01T00:10:44.474Z,48.0520
2022-09-01T00:10:55.599Z,48.0520
2022-09-01T00:11:06.777Z,48.0520
2022-09-01T00:11:17.975Z,48.0580
2022-09-01T00:11:29.176Z,48.0380
2022-09-01T00:11:40.376Z,48.0300
2022-09-01T00:11:51.569Z,48.0180
2022-09-01T00:12:02.701Z,48.0270
2022-09-01T00:12:13.848Z,48.0200
2022-09-01T00:12:24.981Z,48.0270
2022-09-01T00:12:36.249Z,48.0120
2022-09-01T00:12:47.374Z,48.0020
2022-09-01T00:12:58.507Z,47.9860
2022-09-01T00:13:09.631Z,47.9340
2022-09-01T00:13:20.755Z,47.9040
2022-09-01T00:13:31.879Z,47.9100
2022-09-01T00:13:43.015Z,47.8880
2022-09-01T00:13:54.138Z,47.8380
2022-09-01T00:14:05.336Z,47.8140
2022-09-01T00:14:30.192Z,48.0620
2022-09-01T00:14:41.604Z,48.2200
2022-09-01T00:14:53.169Z,48.1740
2022-09-01T00:15:04.307Z,48.0200
2022-09-01T00:15:15.418Z,47.9460
2022-09-01T00:15:26.682Z,47.9060
2022-09-01T00:15:37.854Z,47.9180
2022-09-01T00:15:49.140Z,47.9180
2022-09-01T00:16:00.374Z,47.9180
2022-09-01T00:16:11.606Z,47.9060
2022-09-01T00:16:22.727Z,47.8410
2022-09-01T00:16:33.827Z,47.7850
2022-09-01T00:16:45.025Z,47.7710
2022-09-01T00:16:57.861Z,47.8340
2022-09-01T00:17:09.008Z,47.8080
2022-09-01T00:17:20.168Z,47.7720
2022-09-01T00:17:31.285Z,47.7500
2022-09-01T00:17:42.411Z,47.7840
2022-09-01T00:17:54.356Z,47.7840
2022-09-01T00:18:05.456Z,47.6910
2022-09-01T00:18:16.648Z,47.6570
2022-09-01T00:18:27.755Z,47.6470
2022-09-01T00:18:38.932Z,47.6390
2022-09-01T00:18:50.053Z,47.6270
2022-09-01T00:19:01.325Z,47.6050
2022-09-01T00:19:12.458Z,47.5670
2022-09-01T00:19:24.677Z,47.6170
2022-09-01T00:19:35.806Z,47.5610
2022-09-01T00:19:46.936Z,47.5310
2022-09-01T00:19:58.098Z,47.5550
2022-09-01T00:20:09.225Z,47.5310
2022-09-01T00:20:20.841Z,47.5490
2022-09-01T00:20:32.130Z,47.6050
2022-09-01T00:20:43.254Z,47.5950
2022-09-01T00:20:54.401Z,47.6130
2022-09-01T00:21:05.664Z,47.6230
2022-09-01T00:21:16.795Z,47.6290
2022-09-01T00:21:27.935Z,47.6070
2022-09-01T00:21:39.100Z,47.5990
2022-09-01T00:21:50.226Z,47.6290
2022-09-01T00:22:01.364Z,47.6110
2022-09-01T00:22:12.468Z,47.5670
2022-09-01T00:22:23.565Z,47.5850
2022-09-01T00:22:34.702Z,47.5650
2022-09-01T00:22:45.839Z,47.5530
2022-09-01T00:22:56.964Z,47.5130
2022-09-01T00:23:08.084Z,47.4730
2022-09-01T00:23:19.407Z,47.4380
2022-09-01T00:23:30.535Z,47.4130
2022-09-01T00:23:41.667Z,47.4010
2022-09-01T00:23:52.856Z,47.4130
2022-09-01T00:24:04.056Z,47.4570
2022-09-01T00:24:15.255Z,47.5070
2022-09-01T00:24:26.503Z,47.5190
2022-09-01T00:24:37.660Z,47.5370
2022-09-01T00:24:48.793Z,47.5730
2022-09-01T00:24:59.916Z,47.5770
2022-09-01T00:25:11.049Z,47.5270
2022-09-01T00:25:22.326Z,47.5490
2022-09-01T00:25:33.463Z,47.5650
2022-09-01T00:25:44.592Z,47.5730
2022-09-01T00:25:55.715Z,47.5930
2022-09-01T00:26:06.843Z,47.6340
2022-09-01T00:26:17.986Z,47.6500
2022-09-01T00:26:29.112Z,47.6300
2022-09-01T00:26:40.259Z,47.6560
2022-09-01T00:26:51.412Z,47.6680
2022-09-01T00:27:02.539Z,47.6500
2022-09-01T00:27:13.657Z,47.6360
2022-09-01T00:27:27.889Z,47.6750
2022-09-01T00:27:41.984Z,47.9160
2022-09-01T00:27:53.167Z,47.7830
2022-09-01T00:28:04.380Z,47.6750
2022-09-01T00:28:15.579Z,47.6360
2022-09-01T00:28:29.263Z,47.6340
2022-09-01T00:28:41.516Z,47.8350
2022-09-01T00:28:52.697Z,47.7250
2022-09-01T00:29:03.896Z,47.6800
2022-09-01T00:29:15.087Z,47.7050
2022-09-01T00:29:26.215Z,47.7150
2022-09-01T00:29:37.493Z,47.7230
2022-09-01T00:29:48.619Z,47.7450
2022-09-01T00:29:59.734Z,47.7450
2022-09-01T00:30:10.865Z,47.7450
2022-09-01T00:30:22.001Z,47.7710
2022-09-01T00:30:33.175Z,47.7790
2022-09-01T00:30:44.403Z,47.7490
2022-09-01T00:30:55.645Z,47.7200
2022-09-01T00:31:06.852Z,47.7390
2022-09-01T00:31:18.059Z,47.7450
2022-09-01T00:31:29.227Z,47.7510
2022-09-01T00:31:40.497Z,47.7390
2022-09-01T00:31:51.611Z,47.7510
2022-09-01T00:32:02.775Z,47.7270
2022-09-01T00:32:14.105Z,47.7270
2022-09-01T00:32:25.266Z,47.7450
2022-09-01T00:32:36.396Z,47.7670
2022-09-01T00:32:47.579Z,47.7730
2022-09-01T00:32:58.774Z,47.7910
2022-09-01T00:33:09.972Z,47.7970
2022-09-01T00:33:21.133Z,47.7950
2022-09-01T00:33:32.312Z,47.7630
2022-09-01T00:33:43.583Z,47.7260
2022-09-01T00:33:54.782Z,47.7080
2022-09-01T00:34:05.975Z,47.7080
2022-09-01T00:34:17.166Z,47.7020
2022-09-01T00:34:28.294Z,47.6460
2022-09-01T00:34:39.424Z,47.6360
2022-09-01T00:34:50.554Z,47.6560
2022-09-01T00:35:01.686Z,47.6920
2022-09-01T00:35:12.854Z,47.6740
2022-09-01T00:35:23.985Z,47.7040
2022-09-01T00:35:37.369Z,47.7390
2022-09-01T00:35:48.755Z,47.8930
2022-09-01T00:35:59.885Z,47.7950
2022-09-01T00:36:11.017Z,47.7440
2022-09-01T00:36:22.157Z,47.7390
2022-09-01T00:36:33.283Z,47.6760
2022-09-01T00:36:44.408Z,47.6120
2022-09-01T00:36:55.579Z,47.5620
2022-09-01T00:37:06.779Z,47.5600
2022-09-01T00:37:17.991Z,47.5560
2022-09-01T00:37:29.207Z,47.4860
2022-09-01T00:37:40.374Z,47.4390
2022-09-01T00:37:51.715Z,47.4270
2022-09-01T00:38:02.845Z,47.4510
2022-09-01T00:38:13.976Z,47.4640
2022-09-01T00:38:25.172Z,47.4640
2022-09-01T00:38:36.295Z,47.4730
2022-09-01T00:38:47.418Z,47.4550
2022-09-01T00:38:58.569Z,47.4170
2022-09-01T00:39:09.700Z,47.3750
2022-09-01T00:39:21.574Z,47.4010
2022-09-01T00:39:32.700Z,47.3410
2022-09-01T00:39:43.897Z,47.2890
2022-09-01T00:39:55.245Z,47.2460
2022-09-01T00:40:06.465Z,47.2320
2022-09-01T00:40:17.696Z,47.1840
2022-09-01T00:40:28.890Z,47.1640
2022-09-01T00:40:40.001Z,47.1260
2022-09-01T00:40:51.181Z,47.1040
2022-09-01T00:41:02.331Z,47.1040
2022-09-01T00:41:13.502Z,47.0800
2022-09-01T00:41:24.700Z,47.1660
2022-09-01T00:41:35.894Z,47.1880
2022-09-01T00:41:47.030Z,47.2160
2022-09-01T00:41:58.295Z,47.2520
2022-09-01T00:42:09.498Z,47.2750
2022-09-01T00:42:20.627Z,47.2610
2022-09-01T00:42:31.886Z,47.3030
2022-09-01T00:42:43.013Z,47.3010
2022-09-01T00:42:54.130Z,47.3030
2022-09-01T00:43:05.259Z,47.3010
2022-09-01T00:43:16.395Z,47.3010
2022-09-01T00:43:27.575Z,47.3130
2022-09-01T00:43:38.707Z,47.3310
2022-09-01T00:43:49.844Z,47.3250
2022-09-01T00:44:01.116Z,47.3030
2022-09-01T00:44:12.252Z,47.3130
2022-09-01T00:44:23.622Z,47.2750
2022-09-01T00:44:36.058Z,47.3590
2022-09-01T00:44:47.257Z,47.3070
2022-09-01T00:44:58.365Z,47.3130
2022-09-01T00:45:09.495Z,47.3130
2022-09-01T00:45:21.255Z,47.3750
2022-09-01T00:45:34.392Z,47.4410
2022-09-01T00:45:45.545Z,47.3430
2022-09-01T00:45:56.804Z,47.3010
2022-09-01T00:46:08.327Z,47.2610
2022-09-01T00:46:21.498Z,47.3550
2022-09-01T00:46:34.011Z,47.3650
2022-09-01T00:46:51.007Z,47.4670
2022-09-01T00:47:04.667Z,47.5840
2022-09-01T00:47:16.600Z,47.5070
2022-09-01T00:47:28.534Z,47.4630
2022-09-01T00:47:39.684Z,47.3650
2022-09-01T00:47:50.858Z,47.3030
2022-09-01T00:48:01.966Z,47.3250
2022-09-01T00:48:15.381Z,47.4410
2022-09-01T00:48:26.622Z,47.3190
2022-09-01T00:48:37.757Z,47.2730
2022-09-01T00:48:49.299Z,47.2490
2022-09-01T00:49:00.894Z,47.2850
2022-09-01T00:49:12.017Z,47.2630
2022-09-01T00:49:23.158Z,47.2750
2022-09-01T00:49:35.228Z,47.2330
2022-09-01T00:49:46.675Z,47.2730
2022-09-01T00:49:57.806Z,47.2290
2022-09-01T00:50:08.951Z,47.2170
2022-09-01T00:50:20.067Z,47.1870
2022-09-01T00:50:31.405Z,47.2270
2022-09-01T00:50:42.537Z,47.2550
2022-09-01T00:50:54.699Z,47.2890
2022-09-01T00:51:05.844Z,47.3690
2022-09-01T00:51:17.013Z,47.3530
2022-09-01T00:51:28.150Z,47.4110
2022-09-01T00:51:39.271Z,47.4730
2022-09-01T00:51:50.418Z,47.4290
2022-09-01T00:52:01.544Z,47.4050
2022-09-01T00:52:12.694Z,47.3240
2022-09-01T00:52:23.894Z,47.3190
2022-09-01T00:52:35.257Z,47.3430
2022-09-01T00:52:46.394Z,47.3190
2022-09-01T00:52:57.520Z,47.2940
2022-09-01T00:53:08.699Z,47.2220
2022-09-01T00:53:19.840Z,47.1740
2022-09-01T00:53:30.985Z,47.1280
2022-09-01T00:53:42.106Z,47.0680
2022-09-01T00:53:53.237Z,47.0440
2022-09-01T00:54:04.367Z,47.0200
2022-09-01T00:54:15.487Z,46.9940
2022-09-01T00:54:26.616Z,47.0000
2022-09-01T00:54:37.903Z,47.0200
2022-09-01T00:54:49.023Z,47.0500
2022-09-01T00:55:00.187Z,47.0740
2022-09-01T00:55:11.283Z,47.1120
2022-09-01T00:55:22.457Z,47.1340
2022-09-01T00:55:33.587Z,47.1600
2022-09-01T00:55:44.718Z,47.1240
2022-09-01T00:55:55.847Z,47.1820
2022-09-01T00:56:06.992Z,47.2100
2022-09-01T00:56:18.129Z,47.1740
2022-09-01T00:56:29.236Z,47.2170
2022-09-01T00:56:40.514Z,47.2070
2022-09-01T00:56:57.805Z,47.3250
2022-09-01T00:57:09.447Z,47.2140
2022-09-01T00:57:20.582Z,47.0740
2022-09-01T00:57:31.736Z,47.0660
2022-09-01T00:57:42.934Z,47.0840
2022-09-01T00:57:54.086Z,47.0720
2022-09-01T00:58:05.229Z,47.0540
2022-09-01T00:58:19.595Z,46.9820
2022-09-01T00:58:31.165Z,47.1300
2022-09-01T00:58:42.287Z,47.0200
2022-09-01T00:58:53.563Z,47.0160
2022-09-01T00:59:04.686Z,47.0220
2022-09-01T00:59:15.808Z,47.0220
2022-09-01T00:59:26.963Z,47.0340
2022-09-01T00:59:38.864Z,47.0620
2022-09-01T00:59:50.001Z,47.0500
2022-09-01T01:00:01.174Z,47.0620
2022-09-01T01:00:12.305Z,46.9880
2022-09-01T01:00:23.436Z,47.0160
2022-09-01T01:00:34.562Z,46.9800
2022-09-01T01:00:45.688Z,46.9660
2022-09-01T01:00:57.004Z,47.0320
2022-09-01T01:01:08.198Z,47.0440
2022-09-01T01:01:19.440Z,47.1020
2022-09-01T01:01:30.647Z,47.0900
2022-09-01T01:01:41.900Z,47.1140
2022-09-01T01:01:53.066Z,47.0960
2022-09-01T01:02:04.295Z,47.1080
2022-09-01T01:02:15.442Z,47.0780
2022-09-01T01:02:26.658Z,47.0660
2022-09-01T01:02:37.866Z,47.0600
2022-09-01T01:02:48.993Z,47.0660
2022-09-01T01:03:00.230Z,47.0040
2022-09-01T01:03:11.515Z,46.9920
2022-09-01T01:03:22.644Z,47.0280
2022-09-01T01:03:33.785Z,47.0340
2022-09-01T01:03:44.909Z,47.0400
2022-09-01T01:03:56.046Z,47.0280
2022-09-01T01:04:07.186Z,46.9980
2022-09-01T01:04:18.317Z,46.9800
2022-09-01T01:04:29.454Z,46.9920
2022-09-01T01:04:40.574Z,46.9980
2022-09-01T01:04:51.734Z,46.9740
2022-09-01T01:05:02.930Z,46.9340
2022-09-01T01:05:14.427Z,46.9120
2022-09-01T01:05:26.705Z,46.9920
2022-09-01T01:05:37.911Z,46.9200
2022-09-01T01:05:49.047Z,46.9140
2022-09-01T01:06:00.209Z,46.9200
2022-09-01T01:06:11.412Z,46.9080
2022-09-01T01:06:22.545Z,46.8480
2022-09-01T01:06:33.667Z,46.8160
2022-09-01T01:06:44.798Z,46.8100
2022-09-01T01:06:55.935Z,46.7980
2022-09-01T01:07:07.096Z,46.8100
2022-09-01T01:07:18.374Z,46.8040
2022-09-01T01:07:29.506Z,46.8160
2022-09-01T01:07:40.696Z,46.8220
2022-09-01T01:07:52.469Z,46.8540
2022-09-01T01:08:03.630Z,46.8040
2022-09-01T01:08:14.754Z,46.8040
2022-09-01T01:08:25.894Z,46.7800
2022-09-01T01:08:37.017Z,46.7740
2022-09-01T01:08:48.214Z,46.8040
2022-09-01T01:08:59.415Z,46.8160
2022-09-01T01:09:10.544Z,46.8340
2022-09-01T01:09:21.823Z,46.8320
2022-09-01T01:09:33.028Z,46.8780
2022-09-01T01:09:44.220Z,46.9300
2022-09-01T01:09:55.408Z,46.9200
2022-09-01T01:10:06.633Z,46.8720
2022-09-01T01:10:17.819Z,46.8560
2022-09-01T01:10:29.017Z,46.8380
2022-09-01T01:10:40.142Z,46.8860
2022-09-01T01:10:51.271Z,46.8680
2022-09-01T01:11:02.409Z,46.8780
2022-09-01T01:11:13.537Z,46.9020
2022-09-01T01:11:24.842Z,46.9460
2022-09-01T01:11:35.976Z,46.9540
2022-09-01T01:11:47.105Z,46.9660
2022-09-01T01:11:58.295Z,46.9800
2022-09-01T01:12:09.495Z,46.9860
2022-09-01T01:12:20.701Z,47.0400
2022-09-01T01:12:31.994Z,47.0740
2022-09-01T01:12:43.115Z,47.0490
2022-09-01T01:12:54.307Z,47.0200
2022-09-01T01:13:05.536Z,47.0440
2022-09-01T01:13:16.697Z,47.0380
2022-09-01T01:13:28.025Z,47.0670
2022-09-01T01:13:39.156Z,47.0310
2022-09-01T01:13:50.297Z,47.0050
2022-09-01T01:14:01.427Z,46.9810
2022-09-01T01:14:12.562Z,46.9690
2022-09-01T01:14:23.686Z,46.9370
2022-09-01T01:14:34.815Z,46.9140
2022-09-01T01:14:46.073Z,46.8900
2022-09-01T01:14:57.187Z,46.8940
2022-09-01T01:15:08.369Z,46.9540
2022-09-01T01:15:19.487Z,46.9460
2022-09-01T01:15:30.756Z,46.9520
2022-09-01T01:15:41.887Z,46.9870
2022-09-01T01:15:53.027Z,46.9990
2022-09-01T01:16:04.160Z,46.9830
2022-09-01T01:16:15.320Z,47.0270
2022-09-01T01:16:26.518Z,47.0370
2022-09-01T01:16:37.735Z,47.0310
2022-09-01T01:16:48.859Z,47.0150
2022-09-01T01:17:00.023Z,47.0030
2022-09-01T01:17:11.146Z,47.0150
2022-09-01T01:17:22.277Z,46.9510
2022-09-01T01:17:33.552Z,46.8950
2022-09-01T01:17:44.687Z,46.8950
2022-09-01T01:17:55.818Z,46.9070
2022-09-01T01:18:06.982Z,46.9010
2022-09-01T01:18:23.511Z,46.8570
2022-09-01T01:18:35.165Z,47.1470
2022-09-01T01:18:46.285Z,47.0110
2022-09-01T01:18:57.414Z,46.9310
2022-09-01T01:19:08.542Z,46.9110
2022-09-01T01:19:19.666Z,46.9230
2022-09-01T01:19:30.795Z,46.8950
2022-09-01T01:19:47.977Z,47.0270
2022-09-01T01:19:59.130Z,46.8910
2022-09-01T01:20:10.255Z,46.8270
2022-09-01T01:20:21.377Z,46.8040
2022-09-01T01:20:32.532Z,46.8260
2022-09-01T01:20:43.656Z,46.8160
2022-09-01T01:20:54.786Z,46.8210
2022-09-01T01:21:05.930Z,46.8270
2022-09-01T01:21:17.061Z,46.8230
2022-09-01T01:21:28.218Z,46.8230
2022-09-01T01:21:39.413Z,46.7970
2022-09-01T01:21:50.694Z,46.7970
2022-09-01T01:22:01.952Z,46.8330
2022-09-01T01:22:13.080Z,46.7910
2022-09-01T01:22:24.208Z,46.8090
2022-09-01T01:22:35.339Z,46.8210
2022-09-01T01:22:46.474Z,46.7590
2022-09-01T01:22:57.602Z,46.7410
2022-09-01T01:23:08.766Z,46.7230
2022-09-01T01:23:19.907Z,46.7120
2022-09-01T01:23:31.094Z,46.7360
2022-09-01T01:23:42.223Z,46.7400
2022-09-01T01:23:53.501Z,46.7480
2022-09-01T01:24:04.697Z,46.7770
2022-09-01T01:24:15.905Z,46.8150
2022-09-01T01:24:27.096Z,46.7710
2022-09-01T01:24:38.288Z,46.7470
2022-09-01T01:24:49.486Z,46.7350
2022-09-01T01:25:00.618Z,46.7120
2022-09-01T01:25:11.750Z,46.7240
2022-09-01T01:25:22.877Z,46.7240
2022-09-01T01:25:34.025Z,46.7300
2022-09-01T01:25:45.164Z,46.7980
2022-09-01T01:25:56.454Z,46.8330
2022-09-01T01:26:07.576Z,46.8450
2022-09-01T01:26:18.709Z,46.8030
2022-09-01T01:26:29.846Z,46.7830
2022-09-01T01:26:40.975Z,46.7970
2022-09-01T01:26:52.115Z,46.8030
2022-09-01T01:27:03.244Z,46.8210
2022-09-01T01:27:14.376Z,46.8170
2022-09-01T01:27:25.507Z,46.7530
2022-09-01T01:27:42.956Z,46.7530
2022-09-01T01:27:53.679Z,47.0110
2022-09-01T01:28:04.954Z,46.9430
2022-09-01T01:28:16.118Z,46.8570
2022-09-01T01:28:27.240Z,46.8090
2022-09-01T01:28:38.377Z,46.7870
2022-09-01T01:28:49.504Z,46.7590
2022-09-01T01:29:00.699Z,46.7470
2022-09-01T01:29:11.885Z,46.6860
2022-09-01T01:29:23.018Z,46.6900
2022-09-01T01:29:34.158Z,46.6900
2022-09-01T01:29:45.286Z,46.6780
2022-09-01T01:29:56.415Z,46.6680
2022-09-01T01:30:09.350Z,46.6970
2022-09-01T01:30:20.694Z,46.8310
2022-09-01T01:30:31.868Z,46.7830
2022-09-01T01:30:43.029Z,46.7830
2022-09-01T01:30:54.253Z,46.7590
2022-09-01T01:31:05.435Z,46.8030
2022-09-01T01:31:16.666Z,46.8310
2022-09-01T01:31:27.780Z,46.8430
2022-09-01T01:31:38.911Z,46.8610
2022-09-01T01:31:50.031Z,46.8710
2022-09-01T01:32:01.179Z,46.8450
2022-09-01T01:32:12.372Z,46.8430
2022-09-01T01:32:23.649Z,46.8730
2022-09-01T01:32:34.786Z,46.8660
2022-09-01T01:32:45.979Z,46.8790
2022-09-01T01:32:57.177Z,46.8970
2022-09-01T01:33:08.404Z,46.8790
2022-09-01T01:33:19.602Z,46.8830
2022-09-01T01:33:32.479Z,46.9580
2022-09-01T01:33:43.617Z,46.8730
2022-09-01T01:33:54.771Z,46.9160
2022-09-01T01:34:05.894Z,46.8970
2022-09-01T01:34:17.034Z,46.9130
2022-09-01T01:34:28.315Z,46.9130
2022-09-01T01:34:39.455Z,46.9310
2022-09-01T01:34:50.583Z,46.9250
2022-09-01T01:35:02.680Z,46.9520
2022-09-01T01:35:13.819Z,46.9080
2022-09-01T01:35:25.015Z,46.9220
2022-09-01T01:35:36.207Z,46.9340
2022-09-01T01:35:47.338Z,46.9080
2022-09-01T01:35:58.475Z,46.9030
2022-09-01T01:36:09.595Z,46.8850
2022-09-01T01:36:20.722Z,46.8780
2022-09-01T01:36:32.048Z,46.8780
2022-09-01T01:36:43.185Z,46.8910
2022-09-01T01:36:54.317Z,46.9080
2022-09-01T01:37:05.496Z,46.8840
2022-09-01T01:37:16.627Z,46.9220
2022-09-01T01:37:27.763Z,46.9460
2022-09-01T01:37:38.902Z,46.9580
2022-09-01T01:37:50.025Z,46.9640
2022-09-01T01:38:01.177Z,46.9580
2022-09-01T01:38:12.432Z,46.9020
2022-09-01T01:38:23.603Z,46.8960
2022-09-01T01:38:34.922Z,46.8480
2022-09-01T01:38:46.054Z,46.8420
2022-09-01T01:38:57.187Z,46.8220
2022-09-01T01:39:08.378Z,46.8160
2022-09-01T01:39:19.571Z,46.7990
2022-09-01T01:39:30.777Z,46.7920
2022-09-01T01:39:41.884Z,46.8220
2022-09-01T01:39:53.009Z,46.8360
2022-09-01T01:40:04.270Z,46.8540
2022-09-01T01:40:15.478Z,46.8280
2022-09-01T01:40:26.756Z,46.8100
2022-09-01T01:40:38.117Z,46.8160
2022-09-01T01:40:49.371Z,46.8480
2022-09-01T01:41:00.478Z,46.8600
2022-09-01T01:41:11.614Z,46.8540
2022-09-01T01:41:22.776Z,46.8480
2022-09-01T01:41:33.996Z,46.8420
2022-09-01T01:41:45.179Z,46.8220
2022-09-01T01:41:56.372Z,46.7490
2022-09-01T01:42:07.498Z,46.7220
2022-09-01T01:42:18.635Z,46.7180
2022-09-01T01:42:29.765Z,46.6950
2022-09-01T01:42:41.032Z,46.7070
2022-09-01T01:42:52.155Z,46.7220
2022-09-01T01:43:03.435Z,46.7890
2022-09-01T01:43:14.557Z,46.8020
2022-09-01T01:43:25.725Z,46.8330
2022-09-01T01:43:36.855Z,46.8210
2022-09-01T01:43:47.986Z,46.7960
2022-09-01T01:43:59.116Z,46.7770
2022-09-01T01:44:10.256Z,46.7700
2022-09-01T01:44:21.385Z,46.7650
2022-09-01T01:44:32.511Z,46.7700
2022-09-01T01:44:43.781Z,46.7560
2022-09-01T01:44:54.945Z,46.7920
2022-09-01T01:45:06.135Z,46.8110
2022-09-01T01:45:17.339Z,46.8360
2022-09-01T01:45:28.463Z,46.8110
2022-09-01T01:45:39.639Z,46.7860
2022-09-01T01:45:50.806Z,46.8290
2022-09-01T01:46:01.993Z,46.8660
2022-09-01T01:46:13.220Z,46.8780
2022-09-01T01:46:24.424Z,46.8600
2022-09-01T01:46:35.560Z,46.8110
2022-09-01T01:46:46.821Z,46.8110
2022-09-01T01:46:57.950Z,46.7990
2022-09-01T01:47:09.087Z,46.7650
2022-09-01T01:47:20.215Z,46.7340
2022-09-01T01:47:31.414Z,46.7340
2022-09-01T01:47:42.534Z,46.7290
2022-09-01T01:47:53.705Z,46.7300
2022-09-01T01:48:04.800Z,46.7620
2022-09-01T01:48:15.934Z,46.7420
2022-09-01T01:48:27.146Z,46.7920
2022-09-01T01:48:38.276Z,46.7920
2022-09-01T01:48:49.544Z,46.7990
2022-09-01T01:49:00.683Z,46.7920
2022-09-01T01:49:11.825Z,46.7920
2022-09-01T01:49:22.971Z,46.8110
2022-09-01T01:49:34.091Z,46.8160
2022-09-01T01:49:45.218Z,46.7860
2022-09-01T01:49:56.378Z,46.8160
2022-09-01T01:50:07.495Z,46.7860
2022-09-01T01:50:18.626Z,46.7420
2022-09-01T01:50:29.753Z,46.7070
2022-09-01T01:50:40.876Z,46.6900
2022-09-01T01:50:52.206Z,46.6900
2022-09-01T01:51:03.337Z,46.6560
2022-09-01T01:51:14.475Z,46.6550
2022-09-01T01:51:25.658Z,46.6600
2022-09-01T01:51:36.855Z,46.6780
2022-09-01T01:51:47.986Z,46.7240
2022-09-01T01:51:59.158Z,46.7180
2022-09-01T01:52:10.249Z,46.7560
2022-09-01T01:52:21.386Z,46.7860
2022-09-01T01:52:38.417Z,47.0020
2022-09-01T01:52:58.568Z,47.1120
2022-09-01T01:53:11.328Z,47.0280
2022-09-01T01:53:22.901Z,46.9350
2022-09-01T01:53:34.035Z,46.8250
2022-09-01T01:53:45.168Z,46.7730
2022-09-01T01:53:56.294Z,46.7240
2022-09-01T01:54:07.406Z,46.6680
2022-09-01T01:54:18.537Z,46.6210
2022-09-01T01:54:29.680Z,46.5870
2022-09-01T01:54:40.858Z,46.6030
2022-09-01T01:54:51.984Z,46.5590
2022-09-01T01:55:05.190Z,46.5410
2022-09-01T01:55:16.863Z,46.7130
2022-09-01T01:55:27.997Z,46.6660
2022-09-01T01:55:39.124Z,46.5830
2022-09-01T01:55:50.298Z,46.5170
2022-09-01T01:56:01.490Z,46.4890
2022-09-01T01:56:12.612Z,46.4050
2022-09-01T01:56:23.736Z,46.3710
2022-09-01T01:56:34.875Z,46.4030
2022-09-01T01:56:46.007Z,46.3830
2022-09-01T01:56:57.175Z,46.4210
2022-09-01T01:57:08.302Z,46.4230
2022-09-01T01:57:19.583Z,46.4490
2022-09-01T01:57:30.778Z,46.5250
2022-09-01T01:57:41.978Z,46.5100
2022-09-01T01:57:53.109Z,46.4550
2022-09-01T01:58:05.340Z,46.5230
2022-09-01T01:58:16.643Z,46.4670
2022-09-01T01:58:27.777Z,46.4550
2022-09-01T01:58:38.962Z,46.4310
2022-09-01T01:58:50.136Z,46.4230
2022-09-01T01:59:01.272Z,46.4110
2022-09-01T01:59:12.394Z,46.4050
2022-09-01T01:59:23.675Z,46.3650
2022-09-01T01:59:34.804Z,46.3310
2022-09-01T01:59:45.936Z,46.3030
2022-09-01T01:59:57.071Z,46.3230
2022-09-01T02:00:08.204Z,46.3470
2022-09-01T02:00:26.073Z,46.4630
2022-09-01T02:00:37.659Z,46.6390
2022-09-01T02:00:48.855Z,46.5530
2022-09-01T02:01:00.124Z,46.5100
2022-09-01T02:01:11.292Z,46.4910
2022-09-01T02:01:22.495Z,46.4770
2022-09-01T02:01:33.862Z,46.4710
2022-09-01T02:01:45.066Z,46.5070
2022-09-01T02:01:56.214Z,46.4910
2022-09-01T02:02:07.397Z,46.5030
2022-09-01T02:02:18.672Z,46.5220
2022-09-01T02:02:29.879Z,46.5410
2022-09-01T02:02:41.053Z,46.5030
2022-09-01T02:02:52.247Z,46.4910
2022-09-01T02:03:03.451Z,46.5220
2022-09-01T02:03:14.588Z,46.5290
2022-09-01T02:03:25.723Z,46.5220
2022-09-01T02:03:37.011Z,46.5030
2022-09-01T02:03:48.161Z,46.4710
2022-09-01T02:04:00.427Z,46.4630
2022-09-01T02:04:11.758Z,46.5250
2022-09-01T02:04:22.934Z,46.4770
2022-09-01T02:04:34.192Z,46.4770
2022-09-01T02:04:45.205Z,46.4830
2022-09-01T02:04:56.335Z,46.4510
2022-09-01T02:05:07.458Z,46.4670
2022-09-01T02:05:18.603Z,46.4490
2022-09-01T02:05:29.732Z,46.4550
2022-09-01T02:05:40.863Z,46.4790
2022-09-01T02:05:52.128Z,46.4670
2022-09-01T02:06:03.270Z,46.4430
2022-09-01T02:06:14.393Z,46.4370
2022-09-01T02:06:25.537Z,46.3830
2022-09-01T02:06:36.698Z,46.3370
2022-09-01T02:06:47.897Z,46.3810
2022-09-01T02:06:59.095Z,46.3430
2022-09-01T02:07:10.297Z,46.3290
2022-09-01T02:07:21.499Z,46.2550
2022-09-01T02:07:33.176Z,46.2460
2022-09-01T02:07:45.064Z,46.2770
2022-09-01T02:07:56.341Z,46.2060
2022-09-01T02:08:07.462Z,46.1710
2022-09-01T02:08:18.748Z,46.1490
2022-09-01T02:08:29.976Z,46.1250
2022-09-01T02:08:41.186Z,46.1010
2022-09-01T02:08:52.334Z,46.1430
2022-09-01T02:09:03.474Z,46.1610
2022-09-01T02:09:14.604Z,46.1590
2022-09-01T02:09:25.734Z,46.1880
2022-09-01T02:09:36.864Z,46.2630
2022-09-01T02:09:48.073Z,46.2730
2022-09-01T02:09:59.396Z,46.2670
2022-09-01T02:10:10.524Z,46.3250
2022-09-01T02:10:21.643Z,46.3530
2022-09-01T02:10:32.765Z,46.3750
2022-09-01T02:10:43.896Z,46.3930
2022-09-01T02:10:55.051Z,46.3830
2022-09-01T02:11:06.162Z,46.3970
2022-09-01T02:11:17.351Z,46.3970
2022-09-01T02:11:28.534Z,46.3750
2022-09-01T02:11:39.664Z,46.2950
2022-09-01T02:11:50.794Z,46.2850
2022-09-01T02:12:02.072Z,46.2710
2022-09-01T02:12:15.598Z,46.3190
2022-09-01T02:12:27.284Z,46.4790
2022-09-01T02:12:38.420Z,46.3430
2022-09-01T02:12:49.542Z,46.3510
2022-09-01T02:13:00.678Z,46.3010
2022-09-01T02:13:11.801Z,46.2490
2022-09-01T02:13:22.925Z,46.1970
2022-09-01T02:13:34.054Z,46.1820
2022-09-01T02:13:45.191Z,46.2060
2022-09-01T02:13:56.409Z,46.2370
2022-09-01T02:14:07.715Z,46.2370
2022-09-01T02:14:18.844Z,46.2510
2022-09-01T02:14:29.980Z,46.2580
2022-09-01T02:14:41.177Z,46.2330
2022-09-01T02:14:52.309Z,46.2210
2022-09-01T02:15:03.440Z,46.2210
2022-09-01T02:15:14.579Z,46.2330
2022-09-01T02:15:25.716Z,46.2150
2022-09-01T02:15:36.849Z,46.1600
2022-09-01T02:15:47.984Z,46.1140
2022-09-01T02:15:59.122Z,46.1700
2022-09-01T02:16:10.384Z,46.1700
2022-09-01T02:16:21.582Z,46.2090
2022-09-01T02:16:32.840Z,46.2330
2022-09-01T02:16:44.073Z,46.2890
2022-09-01T02:16:55.201Z,46.1970
2022-09-01T02:17:06.395Z,46.1660